Time;durP1;ratioP1;P1;durP2;ratioP2;P2;SDS_P1;SDS_P2;PMS_P1;PMS_P2;Temp;Humidity;BMP_temperature;BMP_pressure;BME280_temperature;BME280_humidity;BME280_pressure;Samples;Min_cycle;Max_cycle;Signal;HPM_P1;HPM_P2
2022/07/30 00:01:26;;;;;;;19.15;10.68;;;;;;;14.54;89.63;101675.00;5095403;28;20034;-46
2022/07/30 00:03:52;;;;;;;17.80;10.32;;;;;;;14.46;90.00;101674.81;5095362;28;20031;-46
2022/07/30 00:06:17;;;;;;;15.43;10.13;;;;;;;14.33;89.78;101678.78;5094700;28;20440;-46
2022/07/30 00:08:42;;;;;;;17.17;10.13;;;;;;;14.30;90.31;101673.53;5094981;28;20024;-45
2022/07/30 00:11:08;;;;;;;18.90;10.98;;;;;;;14.24;90.41;101682.03;5095197;28;20024;-45
2022/07/30 00:13:34;;;;;;;23.80;11.82;;;;;;;14.14;91.85;101675.69;5094432;28;20024;-44
2022/07/30 00:15:59;;;;;;;17.73;10.68;;;;;;;14.08;91.71;101679.81;5094244;28;20412;-45
2022/07/30 00:18:24;;;;;;;17.88;10.45;;;;;;;14.06;91.80;101676.31;5094870;28;20020;-44
2022/07/30 00:20:49;;;;;;;19.10;11.85;;;;;;;14.06;93.16;101671.13;5094181;28;20114;-46
2022/07/30 00:23:15;;;;;;;20.42;12.07;;;;;;;14.19;93.01;101665.47;5095053;28;20081;-44
2022/07/30 00:25:40;;;;;;;23.27;13.55;;;;;;;14.10;93.90;101668.66;5094694;28;20042;-45
2022/07/30 00:28:05;;;;;;;18.58;11.88;;;;;;;14.02;93.58;101665.00;5094179;28;20026;-46
2022/07/30 00:30:31;;;;;;;20.67;12.65;;;;;;;14.06;93.84;101664.25;5094698;28;20020;-44
2022/07/30 00:32:56;;;;;;;20.33;12.40;;;;;;;13.98;94.46;101665.72;5094855;28;20028;-44
2022/07/30 00:35:22;;;;;;;21.52;13.68;;;;;;;14.06;95.07;101661.66;5094017;28;20119;-44
2022/07/30 00:37:47;;;;;;;18.98;12.38;;;;;;;13.89;94.18;101663.75;5094466;28;20025;-44
2022/07/30 00:40:12;;;;;;;22.85;14.90;;;;;;;14.06;95.77;101668.53;5094615;28;20020;-44
2022/07/30 00:42:39;;;;;;;20.77;13.65;;;;;;;13.99;95.41;101670.97;5093388;28;20075;-45
2022/07/30 00:45:07;;;;;;;21.80;13.53;;;;;;;14.01;95.68;101673.59;5094647;28;20032;-44
2022/07/30 00:47:32;;;;;;;20.38;14.65;;;;;;;14.06;96.48;101668.53;5094482;28;20028;-46
2022/07/30 00:49:57;;;;;;;24.95;14.52;;;;;;;14.03;96.72;101671.91;5093961;28;20031;-44
2022/07/30 00:52:22;;;;;;;22.55;15.60;;;;;;;14.05;97.08;101674.56;5094338;28;20032;-44
2022/07/30 00:54:48;;;;;;;26.60;14.40;;;;;;;13.87;96.09;101669.72;5093499;28;20496;-45
2022/07/30 00:57:13;;;;;;;21.13;13.95;;;;;;;13.83;96.03;101664.44;5094283;28;20020;-47
2022/07/30 00:59:38;;;;;;;22.00;14.18;;;;;;;13.75;96.16;101665.94;5094221;28;20413;-45
2022/07/30 01:02:04;;;;;;;20.35;13.65;;;;;;;13.76;96.57;101666.81;5093407;28;20534;-44
2022/07/30 01:04:29;;;;;;;28.70;15.45;;;;;;;13.70;96.64;101667.50;5094002;28;20475;-49
2022/07/30 01:06:55;;;;;;;32.67;18.90;;;;;;;13.82;98.55;101677.34;5094127;28;20553;-47
2022/07/30 01:09:20;;;;;;;29.70;17.77;;;;;;;13.82;98.69;101665.25;5093312;28;20027;-47
2022/07/30 01:11:46;;;;;;;22.23;15.88;;;;;;;13.71;97.69;101660.59;5093721;28;20109;-48
2022/07/30 01:14:11;;;;;;;22.67;15.18;;;;;;;13.71;97.16;101664.09;5094295;28;20032;-48
2022/07/30 01:16:40;;;;;;;26.42;16.08;;;;;;;13.62;96.88;101659.50;5093127;28;20418;-48
2022/07/30 01:22:16;;;;;;;23.17;16.17;;;;;;;13.52;96.81;101656.56;5094075;28;20085;-47
2022/07/30 01:24:54;;;;;;;26.73;16.85;;;;;;;13.35;97.01;101654.34;5092292;28;20040;-46
2022/07/30 01:27:20;;;;;;;25.27;16.10;;;;;;;13.42;97.48;101651.13;5093701;28;20154;-48
2022/07/30 01:29:48;;;;;;;32.65;21.17;;;;;;;13.46;99.23;101652.97;5093394;28;20375;-48
2022/07/30 01:32:15;;;;;;;27.40;19.48;;;;;;;13.37;98.73;101657.88;5093501;28;20023;-49
2022/07/30 01:34:42;;;;;;;32.17;20.35;;;;;;;13.47;99.08;101659.03;5093351;28;20382;-48
2022/07/30 01:37:10;;;;;;;32.00;20.83;;;;;;;13.56;99.92;101663.63;5092786;28;20028;-46
2022/07/30 01:39:37;;;;;;;34.85;21.95;;;;;;;13.52;100.00;101657.47;5093557;28;20036;-48
2022/07/30 01:42:06;;;;;;;31.77;22.65;;;;;;;13.59;100.00;101653.34;5093382;28;20434;-49
2022/07/30 01:44:32;;;;;;;36.40;23.77;;;;;;;13.60;100.00;101655.97;5092585;28;20038;-44
2022/07/30 01:46:58;;;;;;;36.28;26.58;;;;;;;13.70;100.00;101657.16;5093431;28;20028;-48
2022/07/30 01:49:25;;;;;;;29.15;19.17;;;;;;;13.57;100.00;101657.59;5093601;28;20108;-48
2022/07/30 01:51:56;;;;;;;24.35;18.23;;;;;;;13.50;99.87;101660.03;5092795;28;20024;-49
2022/07/30 01:54:25;;;;;;;39.28;25.70;;;;;;;13.63;100.00;101655.19;5093505;28;20023;-49
2022/07/30 01:56:54;;;;;;;41.40;28.92;;;;;;;13.62;100.00;101658.63;5093254;28;20050;-48
2022/07/30 01:59:22;;;;;;;39.58;24.70;;;;;;;13.64;100.00;101656.97;5092603;28;20021;-48
2022/07/30 02:01:47;;;;;;;50.47;31.40;;;;;;;13.73;100.00;101665.00;5093470;28;20111;-48
2022/07/30 02:04:13;;;;;;;47.28;30.65;;;;;;;13.66;100.00;101656.19;5093324;28;20107;-49
2022/07/30 02:06:51;;;;;;;37.53;28.05;;;;;;;13.65;100.00;101667.38;5092201;28;20032;-47
2022/07/30 02:09:20;;;;;;;;;;;;;;;13.70;98.86;101675.28;5093779;28;20054;-47
2022/07/30 02:14:40;;;;;;;46.80;30.80;;;;;;;13.49;100.00;101670.31;5092864;28;20508;-45
2022/07/30 02:17:08;;;;;;;35.45;26.20;;;;;;;13.37;100.00;101670.81;5093218;28;20024;-48
2022/07/30 02:19:39;;;;;;;36.80;27.08;;;;;;;13.29;100.00;101664.50;5092086;28;20028;-47
2022/07/30 02:22:08;;;;;;;40.58;26.83;;;;;;;13.16;100.00;101671.00;5092971;28;20031;-48
2022/07/30 02:24:36;;;;;;;45.30;32.30;;;;;;;13.26;100.00;101670.47;5092441;28;20039;-49
2022/07/30 02:27:35;;;;;;;43.50;29.95;;;;;;;13.22;100.00;101667.72;5092465;28;20023;-49
2022/07/30 02:30:02;;;;;;;36.20;27.15;;;;;;;13.05;100.00;101668.03;5059722;28;20036;-46
2022/07/30 02:32:33;;;;;;;34.97;26.67;;;;;;;13.07;100.00;101668.97;5092747;28;20088;-48
2022/07/30 02:35:04;;;;;;;35.38;26.50;;;;;;;12.95;100.00;101668.56;5092126;28;20024;-49
2022/07/30 02:37:31;;;;;;;44.72;28.63;;;;;;;12.99;100.00;101670.44;5092918;28;20023;-46
2022/07/30 02:39:57;;;;;;;41.07;30.17;;;;;;;13.00;100.00;101669.59;5094278;28;20464;-45
2022/07/30 02:42:24;;;;;;;46.17;33.45;;;;;;;13.15;100.00;101667.50;5096185;28;20044;-50
2022/07/30 02:44:52;;;;;;;43.80;31.02;;;;;;;13.07;100.00;101668.13;5096813;28;20036;-48
2022/07/30 02:47:19;;;;;;;;;;;;;;;13.13;99.98;101674.34;5096605;28;20028;-49
2022/07/30 02:49:46;;;;;;;35.53;26.37;;;;;;;12.95;100.00;101668.56;5096453;28;20374;-49
2022/07/30 02:52:14;;;;;;;39.55;27.67;;;;;;;12.83;100.00;101669.94;5096977;28;20070;-45
2022/07/30 02:54:41;;;;;;;42.50;30.08;;;;;;;12.86;100.00;101671.75;5095840;28;20027;-44
2022/07/30 02:57:08;;;;;;;54.90;35.50;;;;;;;12.94;100.00;101667.69;5096809;28;20029;-48
2022/07/30 02:59:36;;;;;;;46.60;33.63;;;;;;;12.89;100.00;101673.56;5096455;28;20039;-50
2022/07/30 03:02:02;;;;;;;42.15;27.10;;;;;;;12.85;100.00;101673.44;5095775;28;20031;-49
2022/07/30 03:04:30;;;;;;;43.75;31.55;;;;;;;12.91;100.00;101679.66;5096212;28;20032;-49
2022/07/30 03:06:58;;;;;;;51.90;37.38;;;;;;;12.97;100.00;101674.69;5096632;28;20020;-46
2022/07/30 03:09:26;;;;;;;51.22;33.72;;;;;;;12.97;100.00;101679.84;5095738;28;20051;-49
2022/07/30 03:11:52;;;;;;;44.65;32.28;;;;;;;12.87;100.00;101686.41;5096395;28;20024;-48
2022/07/30 03:14:18;;;;;;;47.50;34.15;;;;;;;12.94;100.00;101683.22;5096317;28;20028;-47
2022/07/30 03:16:47;;;;;;;55.67;38.15;;;;;;;12.93;100.00;101686.63;5095205;28;20038;-48
2022/07/30 03:19:16;;;;;;;55.00;40.65;;;;;;;13.05;100.00;101686.16;5096427;28;20030;-49
2022/07/30 03:21:42;;;;;;;39.08;27.45;;;;;;;12.82;100.00;101686.28;5096010;28;20463;-47
2022/07/30 03:24:10;;;;;;;32.50;24.98;;;;;;;12.68;100.00;101682.34;5095448;28;20051;-48
2022/07/30 03:26:36;;;;;;;29.38;25.15;;;;;;;12.59;100.00;101682.00;5095948;28;20020;-49
2022/07/30 03:29:02;;;;;;;31.33;26.00;;;;;;;12.52;100.00;101686.09;5096139;28;20436;-45
2022/07/30 03:31:29;;;;;;;43.28;33.67;;;;;;;12.59;100.00;101684.59;5095027;28;20028;-49
2022/07/30 03:33:54;;;;;;;48.17;35.47;;;;;;;12.67;100.00;101675.41;5095784;28;20490;-48
2022/07/30 03:36:20;;;;;;;52.00;37.75;;;;;;;12.68;100.00;101679.78;5096184;28;20024;-49
2022/07/30 03:38:47;;;;;;;62.20;44.10;;;;;;;12.78;100.00;101676.66;5094965;28;20051;-47
2022/07/30 03:41:13;;;;;;;54.30;38.47;;;;;;;12.76;100.00;101683.47;5095708;28;20107;-47
2022/07/30 03:43:39;;;;;;;54.25;38.88;;;;;;;12.76;100.00;101678.31;5094775;28;20031;-48
2022/07/30 03:46:08;;;;;;;57.78;40.25;;;;;;;12.80;100.00;101684.47;5095838;28;20024;-48
2022/07/30 03:48:34;;;;;;;45.80;33.10;;;;;;;12.67;100.00;101688.34;5095649;28;20423;-48
2022/07/30 03:51:02;;;;;;;41.95;28.95;;;;;;;12.50;100.00;101692.94;5094874;28;20020;-49
2022/07/30 03:53:28;;;;;;;;;;;;;;;12.67;100.00;101689.22;5095840;28;20374;-49
2022/07/30 03:55:54;;;;;;;49.15;35.38;;;;;;;12.63;100.00;101694.25;5095340;28;19915;-49
2022/07/30 03:58:19;;;;;;;61.42;42.15;;;;;;;12.61;100.00;101688.13;5094770;28;20024;-47
2022/07/30 04:00:49;;;;;;;52.10;37.30;;;;;;;12.50;100.00;101704.16;5095258;28;20024;-44
2022/07/30 04:03:31;;;;;;;32.55;27.38;;;;;;;12.39;100.00;101705.47;5095424;28;20055;-50
2022/07/30 04:05:57;;;;;;;62.40;44.78;;;;;;;12.61;100.00;101706.22;5094674;28;20028;-44
2022/07/30 04:08:23;;;;;;;59.53;43.85;;;;;;;12.61;100.00;101712.28;5095180;28;20039;-44
2022/07/30 04:10:49;;;;;;;57.35;42.75;;;;;;;12.58;100.00;101708.72;5095063;28;20028;-44
2022/07/30 04:13:14;;;;;;;49.58;37.03;;;;;;;12.48;100.00;101702.34;5094674;28;20375;-44
2022/07/30 04:16:00;;;;;;;35.70;27.85;;;;;;;12.42;100.00;101713.34;5094938;28;20454;-43
2022/07/30 04:18:29;;;;;;;44.53;33.10;;;;;;;12.34;100.00;101710.50;5094501;28;20403;-44
2022/07/30 04:20:56;;;;;;;36.95;31.70;;;;;;;12.19;100.00;101710.78;5094345;28;20107;-45
2022/07/30 04:23:22;;;;;;;48.25;37.67;;;;;;;12.34;100.00;101714.75;5094881;28;20430;-48
2022/07/30 04:25:48;;;;;;;57.95;39.00;;;;;;;12.22;100.00;101719.50;5094035;28;20563;-46
2022/07/30 04:28:13;;;;;;;45.90;35.45;;;;;;;12.06;100.00;101720.59;5095031;28;20039;-44
2022/07/30 04:30:39;;;;;;;75.55;52.10;;;;;;;12.45;100.00;101728.09;5094696;28;20028;-45
2022/07/30 04:33:07;;;;;;;46.95;37.33;;;;;;;12.21;100.00;101728.06;5094091;28;20056;-47
2022/07/30 04:35:33;;;;;;;53.75;40.10;;;;;;;12.24;100.00;101728.16;5094592;28;20050;-44
2022/07/30 04:38:01;;;;;;;55.78;41.05;;;;;;;12.26;100.00;101724.81;5094684;28;20028;-48
2022/07/30 04:40:27;;;;;;;61.45;44.05;;;;;;;12.27;100.00;101723.13;5093762;28;20459;-49
2022/07/30 04:42:52;;;;;;;69.00;47.83;;;;;;;12.44;100.00;101737.53;5094515;28;20036;-47
2022/07/30 04:45:19;;;;;;;68.80;47.58;;;;;;;12.55;100.00;101734.44;5094680;28;20497;-46
2022/07/30 04:47:45;;;;;;;72.07;49.78;;;;;;;12.75;100.00;101743.78;5093700;28;20044;-49
2022/07/30 04:50:12;;;;;;;80.22;48.67;;;;;;;12.80;100.00;101747.44;5094488;28;20024;-43
2022/07/30 04:52:38;;;;;;;72.95;47.97;;;;;;;12.84;100.00;101744.09;5094159;28;20383;-46
2022/07/30 04:55:05;;;;;;;64.97;44.42;;;;;;;12.91;100.00;101740.06;5093858;28;20036;-44
2022/07/30 04:57:32;;;;;;;64.72;43.50;;;;;;;12.93;100.00;101737.50;5094154;28;20497;-45
2022/07/30 04:59:58;;;;;;;63.13;43.88;;;;;;;13.01;100.00;101749.00;5094520;28;20141;-44
2022/07/30 05:02:27;;;;;;;59.42;42.78;;;;;;;13.07;100.00;101746.63;5092864;28;20103;-44
2022/07/30 05:04:53;;;;;;;58.47;41.90;;;;;;;13.15;100.00;101745.16;5094047;28;20031;-45
2022/07/30 05:07:20;;;;;;;60.95;41.33;;;;;;;13.23;100.00;101758.34;5094026;28;20349;-45
2022/07/30 05:09:46;;;;;;;69.57;41.80;;;;;;;13.29;100.00;101744.75;5093327;28;20020;-47
2022/07/30 05:12:11;;;;;;;57.63;41.92;;;;;;;13.31;100.00;101745.66;5094246;28;20352;-47
2022/07/30 05:14:36;;;;;;;59.15;40.38;;;;;;;13.34;100.00;101746.66;5093839;28;20031;-44
2022/07/30 05:17:02;;;;;;;59.97;38.92;;;;;;;13.38;100.00;101752.84;5093183;28;20028;-44
2022/07/30 05:19:28;;;;;;;58.83;40.05;;;;;;;13.49;100.00;101761.84;5093747;28;20491;-46
2022/07/30 05:21:53;;;;;;;56.45;38.85;;;;;;;13.59;100.00;101756.97;5093687;28;20020;-45
2022/07/30 05:24:18;;;;;;;57.08;37.70;;;;;;;13.64;100.00;101751.09;5093799;28;20059;-44
2022/07/30 05:26:45;;;;;;;58.55;36.08;;;;;;;13.63;100.00;101751.94;5093723;28;20103;-46
2022/07/30 05:29:10;;;;;;;55.97;35.83;;;;;;;13.70;100.00;101755.59;5093112;28;20032;-47
2022/07/30 05:31:36;;;;;;;57.00;38.72;;;;;;;13.81;100.00;101753.31;5093375;28;20375;-49
2022/07/30 05:34:01;;;;;;;56.75;39.15;;;;;;;13.86;100.00;101754.34;5093613;28;20475;-49
2022/07/30 05:36:26;;;;;;;63.78;38.35;;;;;;;13.93;100.00;101763.19;5092621;28;20069;-44
2022/07/30 05:38:51;;;;;;;57.53;37.00;;;;;;;13.96;100.00;101758.09;5093692;28;20467;-48
2022/07/30 05:41:17;;;;;;;58.25;38.20;;;;;;;14.00;100.00;101766.00;5093541;28;20028;-45
2022/07/30 05:43:42;;;;;;;52.35;36.90;;;;;;;14.04;100.00;101758.34;5092487;28;20024;-45
2022/07/30 05:46:08;;;;;;;54.10;35.80;;;;;;;14.09;100.00;101761.94;5093520;28;20222;-44
2022/07/30 05:48:34;;;;;;;52.25;36.40;;;;;;;14.14;100.00;101768.16;5093131;28;20040;-48
2022/07/30 05:51:03;;;;;;;50.70;35.03;;;;;;;14.25;100.00;101771.91;5092722;28;20016;-45
2022/07/30 05:53:28;;;;;;;48.15;35.45;;;;;;;14.29;100.00;101765.09;5093287;28;20095;-43
2022/07/30 05:55:54;;;;;;;50.22;33.75;;;;;;;14.32;100.00;101773.00;5093200;28;20112;-44
2022/07/30 05:58:19;;;;;;;46.28;32.55;;;;;;;14.41;100.00;101773.25;5092651;28;20028;-49
2022/07/30 06:00:45;;;;;;;47.38;30.30;;;;;;;14.47;100.00;101770.84;5092819;28;20081;-50
2022/07/30 06:03:10;;;;;;;51.15;32.17;;;;;;;14.56;100.00;101766.72;5093114;28;20376;-49
2022/07/30 06:05:36;;;;;;;40.17;30.15;;;;;;;14.59;100.00;101772.00;5092312;28;20126;-44
2022/07/30 06:08:01;;;;;;;49.67;31.02;;;;;;;14.64;100.00;101778.22;5093298;28;20023;-49
2022/07/30 06:10:27;;;;;;;41.53;29.77;;;;;;;14.69;100.00;101768.84;5093104;28;20032;-50
2022/07/30 06:12:52;;;;;;;46.95;30.52;;;;;;;14.79;100.00;101782.97;5092419;28;20103;-49
2022/07/30 06:15:17;;;;;;;41.03;28.35;;;;;;;14.84;100.00;101785.69;5092344;28;20067;-48
2022/07/30 06:17:44;;;;;;;35.17;25.95;;;;;;;14.91;100.00;101785.91;5092839;28;20028;-49
2022/07/30 06:20:11;;;;;;;41.97;27.33;;;;;;;15.00;100.00;101782.66;5092166;28;20024;-44
2022/07/30 06:22:36;;;;;;;43.60;25.67;;;;;;;15.04;100.00;101781.03;5092797;28;20028;-47
2022/07/30 06:25:02;;;;;;;42.65;27.05;;;;;;;15.09;100.00;101784.63;5092946;28;20062;-48
2022/07/30 06:27:27;;;;;;;33.42;23.33;;;;;;;15.09;100.00;101795.91;5092092;28;20097;-48
2022/07/30 06:29:53;;;;;;;34.10;22.45;;;;;;;15.19;100.00;101789.22;5092871;28;20016;-44
2022/07/30 06:32:18;;;;;;;37.33;22.10;;;;;;;15.21;100.00;101794.44;5092009;28;20020;-48
2022/07/30 06:34:44;;;;;;;37.08;20.27;;;;;;;15.28;100.00;101796.38;5092427;28;20032;-48
2022/07/30 06:37:09;;;;;;;35.78;22.00;;;;;;;15.43;100.00;101794.16;5092979;28;20048;-48
2022/07/30 06:39:34;;;;;;;33.25;19.58;;;;;;;15.41;100.00;101795.81;5091261;28;20020;-50
2022/07/30 06:42:00;;;;;;;28.02;18.45;;;;;;;15.47;100.00;101802.91;5092230;28;20445;-50
2022/07/30 06:44:25;;;;;;;30.67;18.45;;;;;;;15.51;100.00;101799.53;5092337;28;20031;-47
2022/07/30 06:46:50;;;;;;;26.35;16.33;;;;;;;15.57;100.00;101799.69;5091874;28;20024;-45
2022/07/30 06:49:16;;;;;;;29.30;19.02;;;;;;;15.70;100.00;101805.16;5092506;28;20020;-46
2022/07/30 06:51:41;;;;;;;33.08;16.98;;;;;;;15.72;100.00;101803.50;5092503;28;20032;-44
2022/07/30 06:54:06;;;;;;;32.25;16.95;;;;;;;15.80;100.00;101802.84;5092043;28;20169;-45
2022/07/30 06:56:31;;;;;;;24.15;14.90;;;;;;;15.89;100.00;101803.91;5092520;28;20098;-45
2022/07/30 06:58:57;;;;;;;26.40;14.73;;;;;;;15.90;100.00;101798.75;5092785;28;20021;-44
2022/07/30 07:01:23;;;;;;;21.23;14.40;;;;;;;16.10;100.00;101806.09;5092003;28;20092;-48
2022/07/30 07:03:49;;;;;;;25.58;14.88;;;;;;;16.16;100.00;101800.19;5092177;28;20035;-45
2022/07/30 07:06:14;;;;;;;22.88;12.13;;;;;;;16.16;97.63;101806.25;5092654;28;20020;-45
2022/07/30 07:08:39;;;;;;;21.05;13.90;;;;;;;16.32;100.00;101802.28;5091387;28;20020;-49
2022/07/30 07:11:05;;;;;;;23.02;12.90;;;;;;;16.53;98.44;101800.97;5092363;28;20028;-46
2022/07/30 07:13:30;;;;;;;18.92;11.15;;;;;;;16.69;96.62;101807.34;5092350;28;20107;-44
2022/07/30 07:15:56;;;;;;;21.90;10.32;;;;;;;16.90;93.00;101807.78;5091710;28;20107;-50
2022/07/30 07:18:22;;;;;;;16.63;9.00;;;;;;;17.14;91.60;101816.91;5092029;28;20024;-47
2022/07/30 07:20:47;;;;;;;16.85;8.52;;;;;;;17.24;88.27;101804.94;5092382;28;20043;-48
2022/07/30 07:23:12;;;;;;;17.05;7.30;;;;;;;17.39;85.92;101806.91;5091846;28;20097;-45
2022/07/30 07:25:38;;;;;;;15.82;7.43;;;;;;;17.46;83.77;101807.91;5092746;28;20162;-48
2022/07/30 07:28:04;;;;;;;17.60;7.35;;;;;;;17.63;82.36;101806.44;5096156;28;20099;-45
2022/07/30 07:30:29;;;;;;;13.82;7.20;;;;;;;17.70;81.61;101807.38;5095142;28;20102;-46
2022/07/30 07:32:54;;;;;;;13.65;6.93;;;;;;;17.78;80.88;101811.88;5095826;28;20024;-44
2022/07/30 07:35:20;;;;;;;18.92;7.65;;;;;;;18.06;82.17;101809.72;5096163;28;20466;-50
2022/07/30 07:37:45;;;;;;;14.60;7.43;;;;;;;18.11;79.85;101804.53;5095126;28;20036;-46
2022/07/30 07:40:11;;;;;;;11.15;6.65;;;;;;;18.07;77.68;101807.97;5095999;28;20024;-48
2022/07/30 07:42:37;;;;;;;15.25;5.30;;;;;;;18.04;76.85;101819.25;5094723;28;20040;-49
2022/07/30 07:45:02;;;;;;;12.13;5.20;;;;;;;18.00;76.95;101820.06;5095726;28;20120;-43
2022/07/30 07:47:27;;;;;;;12.48;5.07;;;;;;;18.06;76.68;101811.44;5095417;28;20031;-49
2022/07/30 07:49:56;;;;;;;11.80;5.07;;;;;;;18.24;76.01;101814.31;5094761;28;20352;-48
2022/07/30 07:52:21;;;;;;;12.40;4.85;;;;;;;18.34;75.51;101810.06;5095634;28;20031;-49
2022/07/30 07:54:46;;;;;;;11.23;4.63;;;;;;;18.62;73.71;101805.19;5095587;28;20030;-44
2022/07/30 07:57:12;;;;;;;14.10;4.47;;;;;;;18.80;71.98;101806.25;5094847;28;20107;-45
2022/07/30 07:59:37;;;;;;;13.43;4.75;;;;;;;18.92;73.25;101806.41;5095304;28;20073;-49
2022/07/30 08:02:03;;;;;;;11.77;5.75;;;;;;;18.98;74.94;101806.50;5095340;28;20020;-49
2022/07/30 08:04:28;;;;;;;21.05;5.90;;;;;;;18.86;73.00;101803.69;5094679;28;20031;-49
2022/07/30 08:06:53;;;;;;;9.63;4.50;;;;;;;18.75;72.58;101801.00;5095436;28;20032;-49
2022/07/30 08:09:19;;;;;;;12.23;4.65;;;;;;;18.62;72.39;101807.81;5095215;28;20028;-46
2022/07/30 08:11:44;;;;;;;14.48;4.35;;;;;;;18.53;72.04;101812.94;5094323;28;20040;-49
2022/07/30 08:14:09;;;;;;;11.32;3.90;;;;;;;18.72;73.10;101808.78;5095127;28;20161;-44
2022/07/30 08:16:34;;;;;;;21.75;4.88;;;;;;;18.76;71.94;101816.66;5094888;28;20027;-49
2022/07/30 08:19:00;;;;;;;9.23;3.60;;;;;;;18.65;69.65;101813.06;5094596;28;20024;-44
2022/07/30 08:21:25;;;;;;;9.90;3.80;;;;;;;18.51;69.81;101806.81;5095136;28;20036;-46
2022/07/30 08:23:50;;;;;;;10.77;3.60;;;;;;;18.62;69.53;101807.81;5094744;28;20115;-47
2022/07/30 08:26:15;;;;;;;10.90;3.72;;;;;;;18.66;68.41;101816.56;5094358;28;20035;-48
2022/07/30 08:28:42;;;;;;;11.85;3.72;;;;;;;18.75;69.56;101807.06;5094690;28;20097;-50
2022/07/30 08:31:07;;;;;;;8.63;3.97;;;;;;;18.81;69.38;101805.38;5094902;28;20040;-49
2022/07/30 08:33:33;;;;;;;14.48;4.07;;;;;;;18.94;70.90;101804.72;5093797;28;20423;-50
2022/07/30 08:35:58;;;;;;;11.18;4.35;;;;;;;19.00;68.71;101801.28;5094700;28;20035;-50
2022/07/30 08:38:23;;;;;;;11.27;4.18;;;;;;;19.14;67.79;101806.63;5093904;28;20110;-48
2022/07/30 08:40:49;;;;;;;10.05;3.83;;;;;;;19.32;67.46;101806.78;5093784;28;20360;-47
2022/07/30 08:43:15;;;;;;;7.47;3.33;;;;;;;19.47;68.46;101811.28;5094628;28;20047;-44
2022/07/30 08:45:42;;;;;;;10.15;3.90;;;;;;;19.66;66.16;101812.28;5094376;28;20035;-44
2022/07/30 08:48:11;;;;;;;10.10;3.92;;;;;;;19.80;65.50;101814.13;5094001;28;20035;-44
2022/07/30 08:50:37;;;;;;;14.20;3.83;;;;;;;19.84;64.65;101821.16;5094415;28;20024;-46
2022/07/30 08:53:03;;;;;;;12.35;3.60;;;;;;;19.89;64.76;101809.00;5093938;28;20048;-45
2022/07/30 08:55:28;;;;;;;10.82;3.30;;;;;;;20.05;63.05;101815.19;5094320;28;20462;-44
2022/07/30 08:57:54;;;;;;;10.43;3.35;;;;;;;20.26;61.23;101819.66;5094329;28;20027;-44
2022/07/30 09:00:20;;;;;;;7.55;2.85;;;;;;;20.28;61.65;101823.16;5093488;28;20047;-45
2022/07/30 09:02:46;;;;;;;9.63;3.50;;;;;;;20.26;59.92;101822.28;5093973;28;20031;-45
2022/07/30 09:05:12;;;;;;;7.68;3.20;;;;;;;20.38;61.17;101818.84;5094121;28;20375;-45
2022/07/30 09:07:38;;;;;;;10.20;3.65;;;;;;;20.42;58.55;101815.38;5093285;28;20023;-47
2022/07/30 09:10:05;;;;;;;7.22;3.20;;;;;;;20.45;58.70;101804.03;5094207;28;20211;-49
2022/07/30 09:12:40;;;;;;;10.90;3.15;;;;;;;20.54;59.46;101807.56;5093926;28;20063;-49
2022/07/30 09:15:18;;;;;;;8.95;3.20;;;;;;;20.79;58.19;101815.53;5093266;28;20024;-50
2022/07/30 09:17:49;;;;;;;7.40;2.97;;;;;;;20.92;57.28;101816.44;5093873;28;20024;-49
2022/07/30 09:20:15;;;;;;;11.07;3.30;;;;;;;20.97;57.15;101817.31;5094077;28;20032;-46
2022/07/30 09:22:49;;;;;;;7.28;2.45;;;;;;;21.17;57.03;101816.47;5092924;28;20404;-44
2022/07/30 09:25:14;;;;;;;11.93;3.50;;;;;;;21.13;55.75;101819.97;5093768;28;20031;-48
2022/07/30 09:27:48;;;;;;;6.78;2.85;;;;;;;21.25;57.23;101830.44;5093778;28;20016;-45
2022/07/30 09:30:14;;;;;;;9.13;2.95;;;;;;;21.18;53.16;101828.69;5093271;28;20032;-45
2022/07/30 09:32:53;;;;;;;5.85;2.30;;;;;;;21.27;54.85;101838.34;5093566;28;20024;-47
2022/07/30 09:35:20;;;;;;;7.43;2.55;;;;;;;21.55;55.93;101834.00;5093049;28;20032;-45
2022/07/30 09:37:46;;;;;;;10.02;3.70;;;;;;;21.69;53.78;101829.63;5093400;28;20425;-42
2022/07/30 09:40:17;;;;;;;6.68;2.35;;;;;;;22.07;54.68;101832.19;5093762;28;20034;-45
2022/07/30 09:42:43;;;;;;;7.57;2.40;;;;;;;22.44;52.47;101832.06;5092456;28;20149;-42
2022/07/30 09:45:13;;;;;;;7.82;2.28;;;;;;;22.30;52.34;101814.59;5093547;28;20119;-45
2022/07/30 09:47:41;;;;;;;12.25;2.50;;;;;;;22.41;51.73;101824.22;5093213;28;20471;-42
2022/07/30 09:50:12;;;;;;;10.52;2.20;;;;;;;22.67;50.47;101819.72;5092541;28;20016;-43
2022/07/30 09:52:40;;;;;;;8.18;2.72;;;;;;;22.72;50.61;101816.19;5093011;28;20055;-45
2022/07/30 09:55:06;;;;;;;6.85;2.38;;;;;;;22.83;49.59;101815.22;5093847;28;20047;-45
2022/07/30 09:57:32;;;;;;;5.53;1.90;;;;;;;23.07;50.71;101820.34;5092215;28;20479;-46
2022/07/30 10:00:15;;;;;;;5.63;2.15;;;;;;;23.45;51.08;101819.22;5093446;28;20032;-47
2022/07/30 10:02:41;;;;;;;9.93;2.30;;;;;;;23.42;47.28;101819.22;5092953;28;20482;-47
2022/07/30 10:05:12;;;;;;;7.00;1.92;;;;;;;24.02;46.55;101809.91;5092283;28;20031;-48
2022/07/30 10:07:37;;;;;;;6.25;2.72;;;;;;;23.89;45.25;101810.00;5092683;28;20020;-42
2022/07/30 10:10:03;;;;;;;6.85;2.17;;;;;;;23.95;45.49;101809.97;5093350;28;20055;-42
2022/07/30 10:12:31;;;;;;;5.25;2.30;;;;;;;24.80;45.50;101810.69;5092183;28;20066;-46
2022/07/30 10:15:00;;;;;;;6.85;1.92;;;;;;;25.53;43.18;101805.16;5093009;28;20036;-42
2022/07/30 10:17:26;;;;;;;4.55;2.00;;;;;;;25.11;40.88;101818.13;5092101;28;20020;-46
2022/07/30 10:19:52;;;;;;;5.65;1.90;;;;;;;26.20;41.03;101804.78;5092765;28;20028;-45
2022/07/30 10:22:17;;;;;;;6.63;1.65;;;;;;;27.12;40.00;101803.63;5092951;28;20024;-47
2022/07/30 10:24:44;;;;;;;5.53;1.92;;;;;;;28.09;37.64;101798.47;5092103;28;20502;-46
2022/07/30 10:27:09;;;;;;;5.57;1.83;;;;;;;29.06;35.78;101805.25;5093087;28;20055;-46
2022/07/30 10:29:37;;;;;;;4.35;1.73;;;;;;;29.68;34.77;101807.59;5092761;28;20062;-46
2022/07/30 10:32:03;;;;;;;8.65;1.83;;;;;;;29.76;34.02;101810.84;5092151;28;20028;-48
2022/07/30 10:34:29;;;;;;;4.13;1.92;;;;;;;29.82;31.50;101810.59;5092614;28;20028;-44
2022/07/30 10:36:57;;;;;;;4.13;1.70;;;;;;;29.58;32.42;101811.50;5092884;28;20394;-45
2022/07/30 10:39:34;;;;;;;6.55;1.60;;;;;;;30.24;33.13;101805.56;5092180;28;20028;-42
2022/07/30 10:42:02;;;;;;;4.03;1.42;;;;;;;30.94;32.48;101806.41;5092696;28;20040;-42
2022/07/30 10:44:54;;;;;;;4.00;1.60;;;;;;;31.24;33.85;101804.28;5092471;28;20119;-44
2022/07/30 10:47:24;;;;;;;4.43;1.50;;;;;;;31.33;31.48;101798.56;5092260;28;20032;-48
2022/07/30 10:50:04;;;;;;;4.57;1.50;;;;;;;31.25;32.83;101811.34;5092704;28;20020;-45
2022/07/30 10:52:53;;;;;;;5.65;1.75;;;;;;;31.40;32.03;101809.84;5091794;28;20467;-43
2022/07/30 10:55:26;;;;;;;5.60;1.77;;;;;;;30.85;30.79;101811.16;5093156;28;20099;-45
2022/07/30 10:58:09;;;;;;;4.68;1.45;;;;;;;31.28;33.08;101815.69;5092445;28;20486;-46
2022/07/30 11:00:55;;;;;;;3.67;1.45;;;;;;;31.66;32.69;101810.53;5092551;28;20039;-48
2022/07/30 11:03:25;;;;;;;4.63;1.55;;;;;;;31.27;30.70;101808.63;5096532;28;20040;-45
2022/07/30 11:06:13;;;;;;;7.10;1.60;;;;;;;31.25;32.22;101806.03;5096590;28;20040;-43
2022/07/30 11:08:40;;;;;;;6.07;1.75;;;;;;;31.09;30.12;101800.50;5095533;28;20061;-43
2022/07/30 11:11:21;;;;;;;6.00;1.70;;;;;;;31.79;31.61;101802.81;5096528;28;20024;-48
2022/07/30 11:13:58;;;;;;;6.82;1.25;;;;;;;32.13;30.13;101798.63;5095289;28;20032;-46
2022/07/30 11:16:44;;;;;;;6.03;1.50;;;;;;;32.85;30.25;101804.16;5096382;28;20459;-45
2022/07/30 11:19:21;;;;;;;5.35;1.42;;;;;;;32.96;28.99;101807.16;5096290;28;20099;-43